Extreme weather reports worldwide

High gusts

Station
 
Location
 
Name
 
Wind
Knots
Gust
Knots
Vis
SM
Temp/Dew
C
Baro
inHg
METAR
 
CWRH 45 52 / 29.31 CWRH 290400Z AUTO 33045G52KT 290V350 ////SM ////// ///// A2931
CWOB 37 46 -12/-13 29.32 CWOB 290400Z AUTO 04037G46KT ////SM ////// M12/M13 A2932
RKPM Mosulpo, KR Mosulpo Airbase Heliport 28 41 2.98 13/12 29.89 RKPM 290352Z 36028G041KT 4800 -RA BR BKN005 OVC030 13/12 A2989 RMK CIG005
CWME 30 40 -1/-10 CWME 290400Z AUTO 05030G40KT M02/M10 RMK AO1 PK WND 04041/0344 SLP168 T10171104 57007
KXWA 24 38 5 -10/-13 29.65 KXWA 290351Z AUTO 28024G38KT 5SM -SN OVC015 M11/M13 A2965 RMK AO2 PK WND 28038/0350 SLP092 P0000 T11061133 $

Station
 
Location
 
Name
 
Wind
Knots
Gust
Knots
Vis
SM
Temp/Dew
C
Baro
inHg
METAR
 
BHI SAZB Bahia Blanca, AR Comandante Espora Airport 17 38 6.21 24/19 29.70 SAZB 290354Z 29017G38KT 250V350 9999 TS FEW040CB 24/19 Q1006
K4V1 28 38 10 7/-12 29.50 K4V1 290410Z AUTO 27028G38KT 10SM CLR 07/M12 A2950 RMK AO2 T00731121
MPN EGYP Mount Pleasant, FK Mount Pleasant Airport 27 37 6.21 13/12 29.23 EGYP 290350Z 33027G37KT 9999 FEW004 BKN006 13/12 Q0990
DAG KDAG Daggett, US Barstow Daggett Airport 23 37 10 13/2 29.74 KDAG 290350Z AUTO 26023G37KT 10SM CLR 13/03 A2974 RMK AO2 PK WND 26044/0333 SLP060 T01330028
KCPW 27 37 10 -11/-15 29.65 KCPW 290415Z AUTO 22027G37KT 10SM SCT015 BKN022 OVC030 M11/M15 A2965 RMK AO2
CWEF 29 35 2/0 CWEF 290400Z AUTO 32029G35KT 02/M00 RMK AO1 PK WND 32037/0300 SLP987 T00221002 51050
FTE SAWC El Calafate, AR El Calafate Airport 22 35 6.21 10/1 29.47 SAWC 290410Z 27022G35KT 9999 FEW030 SCT100 10/01 Q0998
KGGF Grant, US Grant Municipal Airport 21 35 9 0/-11 29.56 KGGF 290415Z AUTO 05021G35KT 9SM SCT075 BKN095 00/M11 A2956 RMK AO2
CWZQ 28 34 2/0 CWZQ 290400Z AUTO 30028G34KT 03/M00 RMK AO1 PK WND 31035/0332 SLP040 T00291001 51045
KUT UGKO Kutaisi, GE Kopitnari Airport 21 34 6.21 13/5 30.06 UGKO 290400Z 08021G34KT CAVOK 13/05 Q1018 NOSIG
WKJ RJCW Wakkanai, JP Wakkanai Airport 24 34 1.43 12/11 29.44 RJCW 290409Z 22024G34KT 2300 R08/2000N -SHRA BR FEW006 BKN008 BKN012 12/11 Q0997 RMK 1ST006 5ST008 6ST012 A2946
K08D 23 34 10 -11/-12 29.58 K08D 290415Z AUTO 28023G34KT 10SM -SN BKN008 OVC012 M11/M12 A2958 RMK AO2
GAG KGAG Gage, US Gage Airport 23 33 10 11/0 29.49 KGAG 290353Z AUTO 20023G33KT 10SM CLR 12/01 A2949 RMK AO2 PK WND 20033/0352 SLP983 T01170006
LVS KLVS Las Vegas, US Las Vegas Municipal Airport 20 33 10 / 29.63 KLVS 290353Z AUTO 24020G33KT 10SM CLR A2963 RMK AO2 PK WND 24033/0348 SLPNO
KNSI San Nicolas Island, US San Nicolas Island Nolf Airport 25 33 12/10 29.90 KNSI 290353Z AUTO 32025G33KT OVC012 13/10 A2990 RMK AO2 PK WND 32034/0303 SLP122 T01280100 PWINO $
PKX ZBAD Beijing, CN Beijing Daxing International Airport 23 33 6.21 -5/-27 30.65 ZBAD 290400Z 34012G17MPS CAVOK M05/M27 Q1038 NOSIG
CWKP 28 33 -24/-27 30.43 CWKP 290425Z AUTO 23028G33KT ////SM FEW002 SCT026 BKN037 M24/M27 A3043
LBF KLBF North Platte, US North Platte Regional Airport Lee Bird Field 22 32 10 2/-8 29.62 KLBF 290353Z AUTO 03022G32KT 10SM OVC041 02/M09 A2962 RMK AO2 PK WND 05032/0353 SLP045 T00221089
OLF KOLF Wolf Point, US L M Clayton Airport 18 32 7 -10/-14 29.79 KOLF 290353Z AUTO 28018G32KT 7SM OVC036 M10/M14 A2979 RMK AO2 PK WND 27032/0345 SNB37E49 SLP125 P0000 T11001144
CWNE 27 32 1/-2 CWNE 290400Z AUTO 30027G32KT 01/M03 RMK AO1 1042 PK WND 31032/0308 SLP075 T00111027 50003
CWSF 24 32 -3/-8 CWSF 290400Z AUTO 31024G32KT M03/M08 RMK AO1 SOG 21 1038 PK WND 31032/0358 SLP094 T10321080
QSF DAAS Sétif, DZ Ain Arnat Airport 17 32 3.73 6/3 29.94 DAAS 290400Z 32017G32KT 6000 FEW010 FEW023TCU BKN026 06/03 Q1014
GJL DAAV Jijel, DZ Jijel Ferhat Abbas Airport 20 32 6.21 16/7 29.97 DAAV 290400Z 30020G32KT 9999 SCT020 FEW026CB BKN033 16/07 Q1015
TKS RJOS Tokushima, JP Tokushima Airport/JMSDF Air Base 22 32 3.73 20/19 29.76 RJOS 290400Z 16022G32KT 6000 -SHRA FEW008 BKN012 BKN025 20/19 Q1008
RGL SAWG Rio Gallegos, AR Piloto Civil N. Fernández Airport 21 32 6.21 9/3 29.41 SAWG 290400Z 23021G32KT 9999 FEW025 09/03 Q0996
RUI KSRR Ruidoso, US Sierra Blanca Regional Airport 25 32 10 7/-11 29.78 KSRR 290415Z AUTO 23025G32KT 10SM 07/M11 A2978 RMK AO2
TYZ KTYL Taylor, US Taylor Airport 24 32 10 7/-10 29.74 KTYL 290415Z AUTO 21024G32KT 10SM CLR 07/M10 A2974 RMK AO2
BGD KBGD Borger, US Hutchinson County Airport 17 31 10 12/-5 29.53 KBGD 290351Z AUTO 20017G31KT 10SM CLR 13/M06 A2953 RMK AO2 PK WND 18033/0321 SLP988 T01281056
DHT KDHT Dalhart, US Dalhart Municipal Airport 21 31 10 9/-12 29.52 KDHT 290353Z AUTO 24021G31KT 10SM CLR 09/M13 A2952 RMK AO2 PK WND 23036/0335 SLP981 T00941128 TSNO
IML KIML Imperial, US Imperial Municipal Airport 19 31 10 1/-10 29.56 KIML 290353Z AUTO 03019G31KT 10SM CLR 01/M10 A2956 RMK AO2 PK WND 04035/0309 SLP022 T00111100
MTJ KMTJ Montrose, US Montrose Regional Airport 18 31 10 4/-4 29.56 KMTJ 290353Z AUTO 24018G31KT 10SM CLR 04/M04 A2956 RMK AO2 PK WND 23046/0304 SLP997 T00441044
KSDB 22 31 10 4/-1 29.88 KSDB 290353Z AUTO 31022G31KT 10SM CLR 04/M01 A2988 RMK AO2 PK WND 31031/0344 SLP101 T00441011
CWAQ 24 31 -11/-14 CWAQ 290400Z AUTO 29024G31KT M11/M14 RMK AO1 2PAST HR 3007 PK WND 28033/0319 SLP087 P0001 T11141144 50002
CWKO 20 31 -13/-15 CWKO 290400Z AUTO 31020G31KT M13/M16 RMK AO1 PK WND 31031/0351 SLP094 T11301158 53008
CWRN 25 31 3/1 CWRN 290400Z AUTO 32025G31KT 04/01 RMK AO1 PK WND 32032/0310 SLP043 T00380010 51052
YEN CYEN Estevan, CA Estevan Airport 18 31 1.25 -9/-11 29.54 CYEN 290400Z AUTO 28018G31KT 1 1/4SM -SN OVC012 M09/M11 A2954 RMK SLP043
TOY RJNT Toyama, JP Toyama Airport 20 31 6.21 23/12 29.73 RJNT 290401Z 20020G31KT 160V230 9999 -SHRA FEW020 SCT060 BKN100 23/12 Q1007 RMK 1CU020 3SC060 6AC100 A2974
KUH RJCK Kushiro, JP Kushiro Airport 18 31 3.73 12/11 29.65 RJCK 290411Z 20018G31KT 6000 FEW003 SCT005 BKN006 12/11 Q1004 RMK 1ST003 4ST005 6ST006 A2967
KMYP 24 31 1.5 -10/-11 29.65 KMYP 290416Z AUTO 25024G31KT 1 1/2SM -SN OVC006 M10/M11 A2965 RMK AO2
MHV KMHV Mojave, US Mojave Airport 26 31 8 9/0 29.81 KMHV 290420Z AUTO 28026G31KT 8SM SCT019 BKN024 09/M00 A2981 RMK A01
CWSA 25 31 9 6/2 29.65 CWSA 290422Z AUTO 33025G31KT 9SM SCT026 BKN033 06/02 A2965 RMK SLP043
RJOP Komatsushima, JP JMSDF Komatsushima Heliport 20 30 3.11 21/19 29.79 RJOP 290336Z 17020G30KT 5000 -SHRA BR FEW008 BKN015 BKN030 21/19 Q1009 RMK 2ST008 5CU015 7CU030 A2980
KN60 17 30 -8/-12 29.64 KN60 290352Z AUTO 27017G30KT M09/M12 A2964 RMK AO1 PK WND 27031/0312 SLP068 T10891122
GGW KGGW Glasgow, US Wokal Field/Glasgow-Valley County Airport 18 30 1.5 -10/-13 29.80 KGGW 290353Z AUTO 30018G30KT 1 1/2SM -SN OVC018 M10/M13 A2980 RMK AO2 PK WND 30030/0344 SLP132 P0001 T11001133
JLN KJLN Joplin, US Joplin Regional Airport 14 30 10 11/5 29.71 KJLN 290353Z AUTO 17014G30KT 10SM CLR 12/05 A2971 RMK AO2 PK WND 19030/0348 SLP060 T01170050